Latest Weather Observations for Mount Crawford

IDS60901

Issued at 9:01 pm CDT Friday 6 December 2019 (issued every 10 minutes, with the page automatically refreshed every 10 minutes)

About weather observations | Map of Adelaide area stations | Latest observations for Adelaide area | Other Formats
Station Details ID: 023878 Name: MOUNT CRAWFORD AWS Lat: -34.73 Lon: 138.93 Height: 525.0 m
Data from the previous 72 hours. | See also: Recent months at Mount Crawford
Date/Time
CDT
Temp
°C
App
Temp
°C
Dew
Point
°C
Rel
Hum
%
Delta-T
°C
Wind Press
QNH
hPa
Press
MSL
hPa
Rain since
9am
mm
Dir  Spd
km/h
Gust
km/h
Spd
kts
Gust
kts
06/09:00pm 11.0 6.6 7.5 79 1.7 SSE 20 28 11 15 1017.3 1015.5 0.0
06/08:30pm 12.2 7.7 7.1 71 2.5 SSE 20 28 11 15 1017.3 1015.5 0.0
06/08:00pm 13.9 10.0 7.2 64 3.4 SE 17 24 9 13 1016.9 1015.2 0.0
06/07:30pm 16.2 13.6 7.9 58 4.3 SSE 11 19 6 10 1016.4 1014.6 0.0
06/07:00pm 18.8 15.4 9.3 54 5.1 WSW 17 26 9 14 1016.3 1014.5 0.0
06/06:30pm 19.4 16.0 9.0 51 5.6 WSW 17 28 9 15 1016.1 1014.3 0.0
06/06:00pm 20.2 16.2 9.2 49 6.0 WSW 20 32 11 17 1015.8 1014.0 0.0
06/05:30pm 20.6 16.6 9.2 48 6.2 W 20 30 11 16 1015.4 1013.6 0.0
06/05:00pm 21.1 17.2 8.7 45 6.7 WSW 19 30 10 16 1015.1 1013.2 0.0
06/04:30pm 21.5 18.0 8.7 44 6.9 WSW 17 28 9 15 1015.3 1013.5 0.0
06/04:00pm 20.8 16.8 8.4 45 6.7 WSW 19 33 10 18 1015.3 1013.5 0.0
06/03:30pm 20.9 16.9 8.2 44 6.8 WSW 19 35 10 19 1015.5 1013.7 0.0
06/03:00pm 21.3 17.0 7.2 40 7.4 WSW 19 30 10 16 1015.5 1013.7 0.0
06/02:30pm 20.8 16.6 7.4 42 7.1 WSW 19 30 10 16 1015.7 1013.9 0.0
06/02:00pm 19.7 16.8 8.1 47 6.2 W 13 22 7 12 1015.9 1014.1 0.0
06/01:30pm 20.1 17.1 7.5 44 6.6 W 13 24 7 13 1016.1 1014.3 0.0
06/01:00pm 21.1 18.5 9.4 47 6.4 W 13 22 7 12 1016.4 1014.6 0.0
06/12:30pm 18.7 15.1 6.9 46 6.1 SW 15 26 8 14 1016.4 1014.6 0.0
06/12:00pm 18.7 15.6 7.2 47 6.0 SSW 13 20 7 11 1016.4 1014.6 0.0
06/11:30am 16.8 13.2 6.9 52 5.0 SW 15 26 8 14 1016.2 1014.4 0.0
06/11:00am 16.5 13.8 7.2 54 4.8 S 11 20 6 11 1016.6 1014.8 0.0
06/10:30am 15.0 11.0 6.8 58 4.1 S 17 22 9 12 1016.9 1015.2 0.0
06/10:00am 14.1 11.4 7.2 63 3.5 SW 11 19 6 10 1016.5 1014.7 0.0
06/09:30am 13.0 10.2 6.8 66 3.1 SSW 11 15 6 8 1016.3 1014.5 0.0
06/09:00am 11.4 8.7 7.3 76 2.0 S 11 19 6 10 1016.0 1014.2 0.0
06/08:30am 10.4 6.2 7.6 83 1.4 SSW 19 26 10 14 1015.9 1014.1 0.0
06/08:00am 9.7 7.8 8.9 95 0.4 SSW 9 13 5 7 1015.1 1013.2 0.0
06/07:30am 9.1 7.1 8.8 98 0.2 SSW 9 11 5 6 1014.8 1013.0 0.0
06/07:00am 7.8 5.5 7.5 98 0.1 SSW 9 11 5 6 1014.4 1012.6 0.0
06/06:30am 7.7 5.4 7.4 98 0.1 SSW 9 13 5 7 1014.0 1012.2 0.0
06/06:00am 7.8 5.1 7.5 98 0.1 SW 11 17 6 9 1013.9 1012.1 0.0
06/05:30am 7.9 4.5 7.6 98 0.1 SSW 15 19 8 10 1013.4 1011.5 0.0
06/05:00am 8.9 6.2 8.8 99 0.1 WSW 13 15 7 8 1013.2 1011.3 0.0
06/04:30am 8.5 5.7 8.5 100 0.0 SW 13 17 7 9 1013.2 1011.3 0.0
06/04:00am 8.2 5.7 8.1 99 0.0 S 11 17 6 9 1013.3 1011.4 0.0
06/03:30am 8.5 6.4 8.4 99 0.0 S 9 11 5 6 1013.4 1011.5 0.0
06/03:00am 9.1 6.4 9.0 99 0.1 S 13 17 7 9 1013.2 1011.3 0.0
06/02:30am 9.5 6.9 9.4 99 0.1 S 13 20 7 11 1013.3 1011.4 0.0
06/02:00am 10.1 8.4 10.0 99 0.1 SSE 9 17 5 9 1013.4 1011.5 0.0
06/01:30am 10.2 7.0 10.1 99 0.1 SSE 17 22 9 12 1013.5 1011.7 0.0
06/01:00am 10.4 6.9 10.1 98 0.2 SSE 19 22 10 12 1013.7 1011.9 0.0
06/12:30am 10.4 6.7 10.1 98 0.2 SSE 20 26 11 14 1013.9 1012.1 0.0
06/12:00am 10.3 7.8 9.8 97 0.3 SSE 13 19 7 10 1014.0 1012.2 0.0
 
Date/Time
CDT
Temp
°C
App
Temp
°C
Dew
Point
°C
Rel
Hum
%
Delta-T
°C
Wind Press
QNH
hPa
Press
MSL
hPa
Rain since
9am
mm
Dir  Spd
km/h
Gust
km/h
Spd
kts
Gust
kts
05/11:30pm 10.4 7.1 9.6 95 0.4 SE 17 20 9 11 1014.1 1012.3 0.0
05/11:00pm 10.6 7.3 9.5 93 0.6 SE 17 20 9 11 1014.2 1012.4 0.0
05/10:30pm 11.3 8.6 9.0 86 1.2 SE 13 17 7 9 1014.2 1012.4 0.0
05/10:00pm 13.0 10.4 7.7 70 2.7 SE 11 17 6 9 1014.0 1012.2 0.0
05/09:30pm 14.9 12.4 6.7 58 4.1 W 9 13 5 7 1013.8 1012.0 0.0
05/09:00pm 15.5 12.8 5.4 51 4.9 W 9 15 5 8 1013.7 1011.9 0.0
05/08:30pm 16.5 12.5 4.9 46 5.7 W 15 22 8 12 1013.6 1011.8 0.0
05/08:00pm 17.7 13.4 5.3 44 6.2 W 17 22 9 12 1013.5 1011.7 0.0
05/07:30pm 18.9 14.3 5.4 41 6.8 WSW 19 30 10 16 1013.4 1011.5 0.0
05/07:00pm 19.7 15.1 6.4 42 6.8 WSW 20 35 11 19 1013.2 1011.3 0.0
05/06:30pm 20.0 14.6 6.4 41 7.0 W 24 37 13 20 1012.9 1011.1 0.0
05/06:00pm 21.1 14.3 5.1 35 8.1 W 30 43 16 23 1012.9 1011.1 0.0
05/05:34pm 21.5 14.8 3.7 31 8.8 WSW 28 48 15 26 1013.1 1011.2 0.0
05/05:30pm 21.6 14.6 4.2 32 8.7 W 30 46 16 25 1013.1 1011.2 0.0
05/05:00pm 21.7 14.3 3.9 31 8.8 WSW 32 44 17 24 1013.3 1011.4 0.0
05/04:33pm 22.0 15.1 4.6 32 8.8 WSW 30 50 16 27 1013.1 1011.2 0.0
05/04:30pm 22.8 16.5 5.7 33 8.8 WSW 28 44 15 24 1013.3 1011.4 0.0
05/04:02pm 23.0 16.6 5.4 32 9.1 WSW 28 46 15 25 1013.5 1011.7 0.0
05/04:00pm 22.1 15.3 5.1 33 8.7 WSW 30 46 16 25 1013.4 1011.5 0.0
05/03:38pm 22.6 16.3 5.5 33 8.8 WSW 28 46 15 25 1013.3 1011.4 0.0
05/03:30pm 22.5 16.5 5.4 33 8.8 WSW 26 39 14 21 1013.3 1011.4 0.0
05/03:04pm 22.6 15.4 5.1 32 8.9 W 32 50 17 27 1013.2 1011.3 0.0
05/03:00pm 22.7 16.1 6.0 34 8.7 W 30 43 16 23 1013.4 1011.5 0.0
05/02:30pm 22.6 15.3 4.6 31 9.1 W 32 46 17 25 1013.7 1011.9 0.0
05/02:00pm 21.8 15.1 3.9 31 8.9 W 28 48 15 26 1013.9 1012.1 0.0
05/01:43pm 21.5 14.2 2.7 29 9.1 WSW 30 52 16 28 1013.8 1012.0 0.0
05/01:30pm 21.8 14.5 4.4 32 8.7 W 32 46 17 25 1014.0 1012.2 0.0
05/01:00pm 20.7 13.8 4.7 35 8.0 W 30 43 16 23 1014.1 1012.3 0.0
05/12:30pm 20.4 13.0 5.2 37 7.7 WNW 33 46 18 25 1014.3 1012.5 0.0
05/12:00pm 19.9 12.7 5.2 38 7.4 W 32 44 17 24 1014.3 1012.5 0.0
05/11:33am 19.7 13.5 6.1 41 6.9 WSW 28 46 15 25 1014.3 1012.5 0.0
05/11:30am 19.7 13.9 6.1 41 6.9 WSW 26 46 14 25 1014.4 1012.6 0.0
05/11:07am 19.1 12.8 5.9 42 6.7 W 28 46 15 25 1014.2 1012.4 0.0
05/11:00am 18.9 11.7 5.0 40 6.9 W 32 46 17 25 1014.1 1012.3 0.0
05/10:30am 17.4 10.7 5.7 46 5.8 W 30 43 16 23 1013.9 1012.1 0.0
05/10:00am 16.4 9.6 6.8 53 4.9 W 32 41 17 22 1013.7 1011.9 0.0
05/09:30am 15.5 9.2 7.3 58 4.2 W 30 39 16 21 1013.6 1011.8 0.0
05/09:00am 14.3 8.6 9.7 74 2.4 W 30 39 16 21 1013.8 1012.0 0.0
05/08:30am 12.7 9.0 12.7 100 0.0 W 24 33 13 18 1013.8 1012.0 0.0
05/08:00am 11.2 7.4 11.2 100 0.0 W 22 28 12 15 1013.5 1011.7 0.0
05/07:30am 10.9 7.0 10.9 100 0.0 WNW 22 30 12 16 1013.2 1011.3 0.0
05/07:00am 10.7 6.8 10.7 100 0.0 W 22 30 12 16 1013.2 1011.3 0.0
05/06:30am 10.7 6.8 10.7 100 0.0 WNW 22 30 12 16 1012.8 1011.0 0.0
05/06:00am 10.7 6.4 10.7 100 0.0 WNW 24 33 13 18 1012.7 1010.9 0.0
05/05:30am 11.0 7.5 11.0 100 0.0 WNW 20 28 11 15 1012.4 1010.6 0.0
05/05:00am 10.8 6.5 10.6 99 0.1 WNW 24 33 13 18 1012.2 1010.4 0.0
05/04:30am 10.9 6.6 10.7 99 0.1 WNW 24 30 13 16 1012.2 1010.4 0.0
05/04:00am 10.9 6.2 10.6 98 0.2 WNW 26 35 14 19 1012.3 1010.5 0.0
05/03:30am 11.0 6.7 10.7 98 0.2 W 24 30 13 16 1012.5 1010.7 0.0
05/03:00am 10.8 7.1 10.3 97 0.3 W 20 28 11 15 1012.8 1011.0 0.0
05/02:30am 10.5 6.8 9.6 94 0.5 W 19 24 10 13 1013.2 1011.3 0.0
05/02:00am 10.8 7.1 9.4 91 0.7 W 19 24 10 13 1013.7 1011.9 0.0
05/01:30am 11.0 7.5 8.9 87 1.1 W 17 22 9 12 1014.0 1012.2 0.0
05/01:00am 11.5 8.0 8.9 84 1.3 W 17 22 9 12 1014.3 1012.5 0.0
05/12:30am 11.6 8.0 8.3 80 1.7 W 17 20 9 11 1014.5 1012.7 0.0
05/12:00am 12.0 8.3 7.9 76 2.1 W 17 22 9 12 1014.8 1013.0 0.0
 
Date/Time
CDT
Temp
°C
App
Temp
°C
Dew
Point
°C
Rel
Hum
%
Delta-T
°C
Wind Press
QNH
hPa
Press
MSL
hPa
Rain since
9am
mm
Dir  Spd
km/h
Gust
km/h
Spd
kts
Gust
kts
04/11:30pm 12.7 8.9 7.6 71 2.6 W 17 22 9 12 1015.1 1013.2 0.0
04/11:00pm 13.0 9.3 8.1 72 2.5 W 17 22 9 12 1015.3 1013.5 0.0
04/10:30pm 13.3 9.4 8.8 74 2.3 W 19 24 10 13 1015.2 1013.4 0.0
04/10:00pm 13.7 9.8 8.7 72 2.6 W 19 24 10 13 1015.4 1013.6 0.0
04/09:30pm 14.2 10.0 8.4 68 3.0 W 20 28 11 15 1015.5 1013.7 0.0
04/09:00pm 14.5 10.4 8.0 65 3.3 W 19 22 10 12 1015.4 1013.6 0.0
04/08:30pm 15.2 10.9 7.7 61 3.8 W 20 26 11 14 1015.4 1013.6 0.0
04/08:00pm 16.2 11.4 7.2 55 4.6 W 22 30 12 16 1015.5 1013.7 0.0
04/07:30pm 17.6 12.3 6.8 49 5.5 W 24 32 13 17 1015.6 1013.8 0.0
04/07:00pm 18.4 12.9 5.9 44 6.3 W 24 35 13 19 1015.3 1013.5 0.0
04/06:30pm 19.2 13.6 7.3 46 6.2 W 26 33 14 18 1015.3 1013.5 0.0
04/06:00pm 19.6 13.2 5.3 39 7.2 W 28 44 15 24 1015.3 1013.5 0.0
04/05:30pm 20.0 12.9 5.6 39 7.3 W 32 41 17 22 1015.3 1013.5 0.0
04/05:00pm 20.6 14.2 5.0 36 7.9 W 28 39 15 21 1015.4 1013.6 0.0
04/04:30pm 20.7 14.2 4.7 35 8.0 W 28 37 15 20 1015.5 1013.7 0.0
04/04:00pm 20.2 14.0 4.3 35 7.9 W 26 35 14 19 1015.6 1013.8 0.0
04/03:30pm 20.1 13.8 3.8 34 8.0 W 26 35 14 19 1015.8 1014.0 0.0
04/03:00pm 19.7 14.1 5.4 39 7.2 W 24 39 13 21 1015.8 1014.0 0.0
04/02:30pm 19.1 13.5 5.6 41 6.8 W 24 35 13 19 1016.0 1014.2 0.0
04/02:00pm 19.5 14.8 7.9 47 6.1 W 22 33 12 18 1016.2 1014.4 0.0
04/01:30pm 18.1 12.9 7.2 49 5.6 W 24 35 13 19 1016.4 1014.6 0.0
04/01:00pm 17.9 13.3 8.2 53 5.1 W 22 37 12 20 1016.6 1014.8 0.0
04/12:30pm 16.9 11.5 7.8 55 4.7 W 26 37 14 20 1016.7 1014.9 0.0
04/12:00pm 16.9 12.0 8.6 58 4.4 W 24 35 13 19 1016.8 1015.1 0.0
04/11:30am 15.7 10.0 8.4 62 3.8 W 28 35 15 19 1016.5 1014.7 0.0
04/11:00am 15.0 10.1 8.5 65 3.4 W 24 33 13 18 1016.8 1015.1 0.0
04/10:30am 14.2 8.6 8.6 69 2.9 W 28 39 15 21 1016.8 1015.1 0.0
04/10:00am 13.6 8.9 7.8 68 2.9 W 22 33 12 18 1016.8 1015.1 0.0
04/09:30am 12.8 7.0 8.1 73 2.4 W 28 37 15 20 1016.9 1015.2 0.0
04/09:00am 12.1 6.0 8.2 77 2.0 W 30 43 16 23 1017.1 1015.3 0.0
04/08:30am 11.7 5.6 8.4 80 1.7 W 30 43 16 23 1016.7 1014.9 0.0
04/08:00am 11.4 6.1 8.4 82 1.5 W 26 37 14 20 1016.5 1014.7 0.0
04/07:30am 10.7 4.9 8.1 84 1.3 W 28 39 15 21 1016.4 1014.6 0.0
04/07:00am 10.3 4.9 8.2 87 1.1 WNW 26 33 14 18 1016.1 1014.3 0.0
04/06:30am 10.1 4.7 8.0 87 1.0 WNW 26 37 14 20 1015.9 1014.1 0.0
04/06:00am 9.8 4.0 7.9 88 0.9 WNW 28 35 15 19 1015.5 1013.7 0.0
04/05:30am 9.6 4.5 7.5 87 1.0 W 24 32 13 17 1015.3 1013.5 0.0
04/05:00am 9.9 4.0 7.7 86 1.1 WNW 28 37 15 20 1015.1 1013.2 0.0
04/04:30am 10.1 3.9 7.7 85 1.2 W 30 39 16 21 1014.9 1013.1 0.0
04/04:00am 10.3 5.7 8.2 87 1.1 W 22 30 12 16 1014.9 1013.1 0.0
04/03:30am 10.3 5.3 7.9 85 1.2 W 24 35 13 19 1015.1 1013.2 0.0
04/03:00am 10.4 5.6 8.7 89 0.9 W 24 37 13 20 1015.1 1013.2 0.0
04/02:30am 10.6 6.3 9.2 91 0.7 W 22 32 12 17 1015.2 1013.4 0.0
04/02:00am 10.8 6.8 9.2 90 0.8 W 20 30 11 16 1015.5 1013.7 0.0
04/01:30am 10.9 7.1 9.7 92 0.6 W 20 30 11 16 1015.8 1014.0 0.0
04/01:00am 11.0 6.3 9.4 90 0.8 W 24 33 13 18 1015.7 1013.9 0.0
04/12:30am 10.9 6.7 9.7 92 0.6 W 22 32 12 17 1015.8 1014.0 0.0
04/12:00am 10.9 7.1 9.8 93 0.6 W 20 32 11 17 1015.8 1014.0 0.0
 
Date/Time
CDT
Temp
°C
App
Temp
°C
Dew
Point
°C
Rel
Hum
%
Delta-T
°C
Wind Press
QNH
hPa
Press
MSL
hPa
Rain since
9am
mm
Dir  Spd
km/h
Gust
km/h
Spd
kts
Gust
kts
03/11:30pm 11.1 6.6 10.0 93 0.6 W 24 33 13 18 1016.1 1014.3 0.0
03/11:00pm 11.1 7.3 9.9 92 0.6 W 20 28 11 15 1016.1 1014.3 0.0
03/10:30pm 11.0 7.1 9.6 91 0.7 W 20 32 11 17 1016.1 1014.3 0.0
03/10:00pm 11.0 7.3 9.6 91 0.7 W 19 26 10 14 1016.1 1014.3 0.0
03/09:30pm 11.1 7.5 9.7 91 0.7 W 19 28 10 15 1015.9 1014.1 0.0

Latest Capital City Observations: Canberra | Sydney | Melbourne | Brisbane | Adelaide | Perth | Hobart | Darwin

Other formats

Comma delimited format used in spreadsheet applications
http://www.bom.gov.au/fwo/IDS60901/IDS60901.94678.axf

JavaScript Object Notation format (JSON) in row-major order
http://www.bom.gov.au/fwo/IDS60901/IDS60901.94678.json

Data quality

Most of these data are generated automatically and are frequently updated. Quality checks on data are not normally performed. It is possible for incorrect values to appear. Refer to information at About Latest Weather Observations and please check the disclaimer before using these data.